Brisbane - Nearby METAR Reports

YBBN - Brisbane Intl Ar, Australia
Distance from station: NNE 11km
Updated: 30/10/2020 21:00
Clear
Clear
 Wind from NNE
Wind: NNE 31 km/h
Temperature: 24°C
Dew Point: 21°C
Humidity: 83%
Barometer: 1009 hPa
Summary: Clear
Visibility: greater than 10 km
2020/10/30 11:00 YBBN 301100Z 02017KT CAVOK 24/21 Q1009
YAMB - Amberley, Australia
Distance from station: WSW 42km
Updated: 30/10/2020 21:00
Clear
Clear
 Wind from E
Wind: E 13 km/h
Temperature: 23°C
Dew Point: 17°C
Humidity: 69%
Barometer: 1008 hPa
Clouds: Clear
Visibility: 10 km
2020/10/30 11:00 YAMB 301100Z AUTO 09007KT 9999 // NCD 23/17 Q1008
 
YBCG - Coolangatta Aws, Australia
Distance from station: SSE 102km
Updated: 30/10/2020 21:00
Clear
Clear
 Wind from NNW
Wind: NNW 15 km/h
Temperature: 23°C
Dew Point: 20°C
Humidity: 83%
Barometer: 1010 hPa
Clouds: Clear
Visibility: 10 km
2020/10/30 11:00 YBCG 301100Z AUTO 33008KT 9999 // NCD 23/20 Q1010